sensor_id;sensor_type;location;lat;lon;timestamp;P1;durP1;ratioP1;P2;durP2;ratioP2
5900;SDS011;2976;49.764;9.796;2023-02-01T00:01:12;4.40;;;3.60;;
5900;SDS011;2976;49.764;9.796;2023-02-01T00:03:37;11.93;;;3.97;;
5900;SDS011;2976;49.764;9.796;2023-02-01T00:06:03;4.17;;;3.80;;
5900;SDS011;2976;49.764;9.796;2023-02-01T00:08:29;6.60;;;4.53;;
5900;SDS011;2976;49.764;9.796;2023-02-01T00:11:01;5.63;;;3.97;;
5900;SDS011;2976;49.764;9.796;2023-02-01T00:13:29;6.93;;;4.90;;
5900;SDS011;2976;49.764;9.796;2023-02-01T00:16:03;5.97;;;4.97;;
5900;SDS011;2976;49.764;9.796;2023-02-01T00:18:28;5.30;;;4.00;;
5900;SDS011;2976;49.764;9.796;2023-02-01T00:20:54;7.90;;;3.30;;
5900;SDS011;2976;49.764;9.796;2023-02-01T00:23:20;3.73;;;3.40;;
5900;SDS011;2976;49.764;9.796;2023-02-01T00:25:45;4.27;;;3.87;;
5900;SDS011;2976;49.764;9.796;2023-02-01T00:28:10;3.50;;;3.20;;
5900;SDS011;2976;49.764;9.796;2023-02-01T00:30:37;4.37;;;3.97;;
5900;SDS011;2976;49.764;9.796;2023-02-01T00:33:03;3.20;;;2.90;;
5900;SDS011;2976;49.764;9.796;2023-02-01T00:35:29;4.90;;;3.80;;
5900;SDS011;2976;49.764;9.796;2023-02-01T00:37:55;5.60;;;3.57;;
5900;SDS011;2976;49.764;9.796;2023-02-01T00:40:23;3.77;;;2.70;;
5900;SDS011;2976;49.764;9.796;2023-02-01T00:42:48;4.17;;;3.43;;
5900;SDS011;2976;49.764;9.796;2023-02-01T00:45:14;3.20;;;2.87;;
5900;SDS011;2976;49.764;9.796;2023-02-01T00:47:40;4.90;;;3.20;;
5900;SDS011;2976;49.764;9.796;2023-02-01T00:50:05;2.80;;;2.60;;
5900;SDS011;2976;49.764;9.796;2023-02-01T00:52:31;3.43;;;3.00;;
5900;SDS011;2976;49.764;9.796;2023-02-01T00:54:56;4.70;;;3.10;;
5900;SDS011;2976;49.764;9.796;2023-02-01T00:57:22;4.20;;;3.10;;
5900;SDS011;2976;49.764;9.796;2023-02-01T00:59:47;5.67;;;2.70;;
5900;SDS011;2976;49.764;9.796;2023-02-01T01:02:13;6.40;;;3.30;;
5900;SDS011;2976;49.764;9.796;2023-02-01T01:04:39;5.30;;;3.40;;
5900;SDS011;2976;49.764;9.796;2023-02-01T01:07:05;3.20;;;2.90;;
5900;SDS011;2976;49.764;9.796;2023-02-01T01:09:30;3.63;;;3.17;;
5900;SDS011;2976;49.764;9.796;2023-02-01T01:11:56;2.90;;;2.70;;
5900;SDS011;2976;49.764;9.796;2023-02-01T01:14:21;4.03;;;3.67;;
5900;SDS011;2976;49.764;9.796;2023-02-01T01:16:47;3.70;;;3.00;;
5900;SDS011;2976;49.764;9.796;2023-02-01T01:19:15;3.70;;;3.40;;
5900;SDS011;2976;49.764;9.796;2023-02-01T01:21:40;6.30;;;3.77;;
5900;SDS011;2976;49.764;9.796;2023-02-01T01:24:06;3.80;;;3.50;;
5900;SDS011;2976;49.764;9.796;2023-02-01T01:26:32;3.67;;;3.37;;
5900;SDS011;2976;49.764;9.796;2023-02-01T01:28:57;3.80;;;3.37;;
5900;SDS011;2976;49.764;9.796;2023-02-01T01:31:24;3.20;;;2.83;;
5900;SDS011;2976;49.764;9.796;2023-02-01T01:33:52;3.80;;;3.40;;
5900;SDS011;2976;49.764;9.796;2023-02-01T01:36:19;3.33;;;3.00;;
5900;SDS011;2976;49.764;9.796;2023-02-01T01:38:45;3.23;;;3.00;;
5900;SDS011;2976;49.764;9.796;2023-02-01T01:41:15;6.60;;;2.87;;
5900;SDS011;2976;49.764;9.796;2023-02-01T01:43:47;3.57;;;3.10;;
5900;SDS011;2976;49.764;9.796;2023-02-01T01:46:20;3.80;;;2.57;;
5900;SDS011;2976;49.764;9.796;2023-02-01T01:51:29;2.90;;;2.47;;
5900;SDS011;2976;49.764;9.796;2023-02-01T01:54:02;2.97;;;2.07;;
5900;SDS011;2976;49.764;9.796;2023-02-01T01:56:32;1.73;;;1.63;;
5900;SDS011;2976;49.764;9.796;2023-02-01T01:58:59;2.00;;;1.90;;
5900;SDS011;2976;49.764;9.796;2023-02-01T02:01:26;2.40;;;1.70;;
5900;SDS011;2976;49.764;9.796;2023-02-01T02:03:52;1.93;;;1.70;;
5900;SDS011;2976;49.764;9.796;2023-02-01T02:06:26;3.20;;;1.97;;
5900;SDS011;2976;49.764;9.796;2023-02-01T02:09:01;1.27;;;1.20;;
5900;SDS011;2976;49.764;9.796;2023-02-01T02:11:27;1.80;;;1.70;;
5900;SDS011;2976;49.764;9.796;2023-02-01T02:13:53;2.00;;;1.90;;
5900;SDS011;2976;49.764;9.796;2023-02-01T02:16:24;1.67;;;1.60;;
5900;SDS011;2976;49.764;9.796;2023-02-01T02:19:08;1.87;;;1.77;;
5900;SDS011;2976;49.764;9.796;2023-02-01T02:21:56;3.33;;;1.70;;
5900;SDS011;2976;49.764;9.796;2023-02-01T02:24:54;2.07;;;1.97;;
5900;SDS011;2976;49.764;9.796;2023-02-01T02:27:51;3.33;;;2.20;;
5900;SDS011;2976;49.764;9.796;2023-02-01T02:30:34;2.47;;;2.27;;
5900;SDS011;2976;49.764;9.796;2023-02-01T02:38:20;2.50;;;2.30;;
5900;SDS011;2976;49.764;9.796;2023-02-01T02:41:03;3.03;;;2.70;;
5900;SDS011;2976;49.764;9.796;2023-02-01T02:43:32;4.50;;;3.10;;
5900;SDS011;2976;49.764;9.796;2023-02-01T02:46:27;6.00;;;3.47;;
5900;SDS011;2976;49.764;9.796;2023-02-01T02:49:27;4.03;;;3.63;;
5900;SDS011;2976;49.764;9.796;2023-02-01T02:52:36;5.83;;;3.43;;
5900;SDS011;2976;49.764;9.796;2023-02-01T02:55:25;5.53;;;3.70;;
5900;SDS011;2976;49.764;9.796;2023-02-01T02:57:52;8.57;;;4.40;;
5900;SDS011;2976;49.764;9.796;2023-02-01T03:00:36;5.60;;;3.03;;
5900;SDS011;2976;49.764;9.796;2023-02-01T03:03:21;3.90;;;3.50;;
5900;SDS011;2976;49.764;9.796;2023-02-01T03:06:08;5.57;;;4.33;;
5900;SDS011;2976;49.764;9.796;2023-02-01T03:08:41;5.63;;;4.50;;
5900;SDS011;2976;49.764;9.796;2023-02-01T03:11:10;8.00;;;5.03;;
5900;SDS011;2976;49.764;9.796;2023-02-01T03:13:52;5.43;;;3.97;;
5900;SDS011;2976;49.764;9.796;2023-02-01T03:17:04;7.90;;;5.47;;
5900;SDS011;2976;49.764;9.796;2023-02-01T03:19:23;8.63;;;4.80;;
5900;SDS011;2976;49.764;9.796;2023-02-01T03:21:53;5.10;;;4.03;;
5900;SDS011;2976;49.764;9.796;2023-02-01T03:24:45;4.60;;;4.10;;
5900;SDS011;2976;49.764;9.796;2023-02-01T03:27:20;12.70;;;4.17;;
5900;SDS011;2976;49.764;9.796;2023-02-01T03:30:02;10.60;;;4.90;;
5900;SDS011;2976;49.764;9.796;2023-02-01T03:32:48;7.87;;;5.10;;
5900;SDS011;2976;49.764;9.796;2023-02-01T03:41:23;4.27;;;3.87;;
5900;SDS011;2976;49.764;9.796;2023-02-01T03:43:54;3.47;;;3.13;;
5900;SDS011;2976;49.764;9.796;2023-02-01T03:46:40;4.73;;;3.63;;
5900;SDS011;2976;49.764;9.796;2023-02-01T03:49:15;10.20;;;3.70;;
5900;SDS011;2976;49.764;9.796;2023-02-01T03:51:49;5.00;;;3.13;;
5900;SDS011;2976;49.764;9.796;2023-02-01T03:54:16;4.97;;;3.70;;
5900;SDS011;2976;49.764;9.796;2023-02-01T03:56:44;2.93;;;2.70;;
5900;SDS011;2976;49.764;9.796;2023-02-01T03:59:12;4.17;;;2.53;;
5900;SDS011;2976;49.764;9.796;2023-02-01T04:01:39;10.37;;;2.27;;
5900;SDS011;2976;49.764;9.796;2023-02-01T04:04:05;9.03;;;2.00;;
5900;SDS011;2976;49.764;9.796;2023-02-01T04:06:31;4.67;;;2.40;;
5900;SDS011;2976;49.764;9.796;2023-02-01T04:08:57;7.63;;;4.13;;
5900;SDS011;2976;49.764;9.796;2023-02-01T04:11:22;5.90;;;3.20;;
5900;SDS011;2976;49.764;9.796;2023-02-01T04:13:48;14.47;;;3.00;;
5900;SDS011;2976;49.764;9.796;2023-02-01T04:16:13;2.40;;;1.47;;
5900;SDS011;2976;49.764;9.796;2023-02-01T04:18:39;10.80;;;2.17;;
5900;SDS011;2976;49.764;9.796;2023-02-01T04:21:04;3.10;;;1.73;;
5900;SDS011;2976;49.764;9.796;2023-02-01T04:23:30;6.67;;;1.50;;
5900;SDS011;2976;49.764;9.796;2023-02-01T04:26:00;8.00;;;1.80;;
5900;SDS011;2976;49.764;9.796;2023-02-01T04:28:26;5.10;;;2.27;;
5900;SDS011;2976;49.764;9.796;2023-02-01T04:30:52;8.97;;;2.30;;
5900;SDS011;2976;49.764;9.796;2023-02-01T04:33:18;6.23;;;1.80;;
5900;SDS011;2976;49.764;9.796;2023-02-01T04:35:43;12.63;;;2.13;;
5900;SDS011;2976;49.764;9.796;2023-02-01T04:38:09;10.43;;;2.17;;
5900;SDS011;2976;49.764;9.796;2023-02-01T04:40:34;6.43;;;2.00;;
5900;SDS011;2976;49.764;9.796;2023-02-01T04:43:02;4.20;;;1.83;;
5900;SDS011;2976;49.764;9.796;2023-02-01T04:45:28;9.43;;;1.80;;
5900;SDS011;2976;49.764;9.796;2023-02-01T04:47:54;8.63;;;1.73;;
5900;SDS011;2976;49.764;9.796;2023-02-01T04:50:19;6.63;;;2.00;;
5900;SDS011;2976;49.764;9.796;2023-02-01T04:52:45;7.90;;;1.40;;
5900;SDS011;2976;49.764;9.796;2023-02-01T04:55:12;4.20;;;1.37;;
5900;SDS011;2976;49.764;9.796;2023-02-01T04:57:38;6.03;;;1.10;;
5900;SDS011;2976;49.764;9.796;2023-02-01T05:00:05;2.93;;;0.80;;
5900;SDS011;2976;49.764;9.796;2023-02-01T05:02:32;0.70;;;0.50;;
5900;SDS011;2976;49.764;9.796;2023-02-01T05:04:57;2.10;;;0.73;;
5900;SDS011;2976;49.764;9.796;2023-02-01T05:07:23;0.83;;;0.53;;
5900;SDS011;2976;49.764;9.796;2023-02-01T05:09:49;1.97;;;0.70;;
5900;SDS011;2976;49.764;9.796;2023-02-01T05:12:14;1.23;;;0.93;;
5900;SDS011;2976;49.764;9.796;2023-02-01T05:14:58;0.73;;;0.73;;
5900;SDS011;2976;49.764;9.796;2023-02-01T05:17:24;1.33;;;0.70;;
5900;SDS011;2976;49.764;9.796;2023-02-01T05:19:49;0.70;;;0.70;;
5900;SDS011;2976;49.764;9.796;2023-02-01T05:22:15;1.20;;;0.73;;
5900;SDS011;2976;49.764;9.796;2023-02-01T05:24:40;0.53;;;0.53;;
5900;SDS011;2976;49.764;9.796;2023-02-01T05:27:06;0.57;;;0.57;;
5900;SDS011;2976;49.764;9.796;2023-02-01T05:29:32;0.60;;;0.60;;
5900;SDS011;2976;49.764;9.796;2023-02-01T05:31:57;0.50;;;0.50;;
5900;SDS011;2976;49.764;9.796;2023-02-01T05:34:23;0.83;;;0.60;;
5900;SDS011;2976;49.764;9.796;2023-02-01T05:36:48;1.70;;;0.70;;
5900;SDS011;2976;49.764;9.796;2023-02-01T05:39:14;0.87;;;0.87;;
5900;SDS011;2976;49.764;9.796;2023-02-01T05:41:39;2.17;;;0.93;;
5900;SDS011;2976;49.764;9.796;2023-02-01T05:44:05;0.70;;;0.70;;
5900;SDS011;2976;49.764;9.796;2023-02-01T05:46:34;3.20;;;1.10;;
5900;SDS011;2976;49.764;9.796;2023-02-01T05:49:00;1.70;;;1.00;;
5900;SDS011;2976;49.764;9.796;2023-02-01T05:51:26;1.00;;;1.00;;
5900;SDS011;2976;49.764;9.796;2023-02-01T05:53:51;2.73;;;1.90;;
5900;SDS011;2976;49.764;9.796;2023-02-01T05:56:17;1.40;;;1.17;;
5900;SDS011;2976;49.764;9.796;2023-02-01T05:58:42;1.33;;;1.23;;
5900;SDS011;2976;49.764;9.796;2023-02-01T06:01:08;4.50;;;1.67;;
5900;SDS011;2976;49.764;9.796;2023-02-01T06:03:33;2.00;;;1.40;;
5900;SDS011;2976;49.764;9.796;2023-02-01T06:05:59;2.50;;;1.70;;
5900;SDS011;2976;49.764;9.796;2023-02-01T06:08:26;5.90;;;1.20;;
5900;SDS011;2976;49.764;9.796;2023-02-01T06:10:59;1.60;;;1.50;;
5900;SDS011;2976;49.764;9.796;2023-02-01T06:13:28;5.33;;;1.70;;
5900;SDS011;2976;49.764;9.796;2023-02-01T06:15:54;2.23;;;1.40;;
5900;SDS011;2976;49.764;9.796;2023-02-01T06:18:20;3.97;;;1.80;;
5900;SDS011;2976;49.764;9.796;2023-02-01T06:20:51;3.33;;;1.87;;
5900;SDS011;2976;49.764;9.796;2023-02-01T06:23:21;2.77;;;1.57;;
5900;SDS011;2976;49.764;9.796;2023-02-01T06:25:48;3.47;;;1.97;;
5900;SDS011;2976;49.764;9.796;2023-02-01T06:28:23;9.13;;;2.37;;
5900;SDS011;2976;49.764;9.796;2023-02-01T06:30:48;5.80;;;2.10;;
5900;SDS011;2976;49.764;9.796;2023-02-01T06:33:14;5.20;;;1.93;;
5900;SDS011;2976;49.764;9.796;2023-02-01T06:35:40;4.73;;;2.63;;
5900;SDS011;2976;49.764;9.796;2023-02-01T06:38:07;2.70;;;1.97;;
5900;SDS011;2976;49.764;9.796;2023-02-01T06:40:32;5.80;;;2.47;;
5900;SDS011;2976;49.764;9.796;2023-02-01T06:42:58;7.40;;;2.60;;
5900;SDS011;2976;49.764;9.796;2023-02-01T06:45:24;6.73;;;2.37;;
5900;SDS011;2976;49.764;9.796;2023-02-01T06:47:49;3.77;;;2.10;;
5900;SDS011;2976;49.764;9.796;2023-02-01T06:50:15;4.47;;;2.60;;
5900;SDS011;2976;49.764;9.796;2023-02-01T06:52:41;7.93;;;2.23;;
5900;SDS011;2976;49.764;9.796;2023-02-01T06:55:06;3.20;;;1.90;;
5900;SDS011;2976;49.764;9.796;2023-02-01T06:57:32;5.40;;;2.40;;
5900;SDS011;2976;49.764;9.796;2023-02-01T06:59:59;9.70;;;2.43;;
5900;SDS011;2976;49.764;9.796;2023-02-01T07:02:25;8.33;;;2.57;;
5900;SDS011;2976;49.764;9.796;2023-02-01T07:04:50;4.20;;;2.17;;
5900;SDS011;2976;49.764;9.796;2023-02-01T07:07:16;15.50;;;3.27;;
5900;SDS011;2976;49.764;9.796;2023-02-01T07:09:41;7.40;;;3.00;;
5900;SDS011;2976;49.764;9.796;2023-02-01T07:12:07;15.57;;;4.10;;
5900;SDS011;2976;49.764;9.796;2023-02-01T07:14:32;6.93;;;3.03;;
5900;SDS011;2976;49.764;9.796;2023-02-01T07:16:58;8.90;;;3.30;;
5900;SDS011;2976;49.764;9.796;2023-02-01T07:19:23;11.07;;;3.63;;
5900;SDS011;2976;49.764;9.796;2023-02-01T07:21:49;9.53;;;2.70;;
5900;SDS011;2976;49.764;9.796;2023-02-01T07:24:14;13.53;;;4.40;;
5900;SDS011;2976;49.764;9.796;2023-02-01T07:26:40;8.43;;;2.33;;
5900;SDS011;2976;49.764;9.796;2023-02-01T07:29:06;14.93;;;2.90;;
5900;SDS011;2976;49.764;9.796;2023-02-01T07:31:31;8.77;;;2.47;;
5900;SDS011;2976;49.764;9.796;2023-02-01T07:33:57;9.83;;;3.10;;
5900;SDS011;2976;49.764;9.796;2023-02-01T07:36:23;5.50;;;2.37;;
5900;SDS011;2976;49.764;9.796;2023-02-01T07:38:48;8.43;;;2.80;;
5900;SDS011;2976;49.764;9.796;2023-02-01T07:41:15;8.83;;;2.90;;
5900;SDS011;2976;49.764;9.796;2023-02-01T07:43:42;8.63;;;2.30;;
5900;SDS011;2976;49.764;9.796;2023-02-01T07:46:09;8.83;;;2.70;;
5900;SDS011;2976;49.764;9.796;2023-02-01T07:48:36;8.43;;;3.40;;
5900;SDS011;2976;49.764;9.796;2023-02-01T07:51:05;5.43;;;2.87;;
5900;SDS011;2976;49.764;9.796;2023-02-01T07:53:34;8.13;;;3.00;;
5900;SDS011;2976;49.764;9.796;2023-02-01T07:56:00;6.43;;;2.80;;
5900;SDS011;2976;49.764;9.796;2023-02-01T07:58:26;8.00;;;2.70;;
5900;SDS011;2976;49.764;9.796;2023-02-01T08:00:52;3.03;;;2.30;;
5900;SDS011;2976;49.764;9.796;2023-02-01T08:03:37;4.50;;;2.73;;
5900;SDS011;2976;49.764;9.796;2023-02-01T08:06:03;7.07;;;2.87;;
5900;SDS011;2976;49.764;9.796;2023-02-01T08:08:29;5.37;;;2.13;;
5900;SDS011;2976;49.764;9.796;2023-02-01T08:10:58;6.20;;;2.60;;
5900;SDS011;2976;49.764;9.796;2023-02-01T08:13:24;5.43;;;2.00;;
5900;SDS011;2976;49.764;9.796;2023-02-01T08:15:49;8.20;;;2.53;;
5900;SDS011;2976;49.764;9.796;2023-02-01T08:18:15;11.77;;;2.63;;
5900;SDS011;2976;49.764;9.796;2023-02-01T08:20:42;4.80;;;2.43;;
5900;SDS011;2976;49.764;9.796;2023-02-01T08:23:10;6.13;;;2.40;;
5900;SDS011;2976;49.764;9.796;2023-02-01T08:25:36;9.40;;;2.60;;
5900;SDS011;2976;49.764;9.796;2023-02-01T08:28:03;3.97;;;2.50;;
5900;SDS011;2976;49.764;9.796;2023-02-01T08:30:29;7.27;;;2.70;;
5900;SDS011;2976;49.764;9.796;2023-02-01T08:32:54;8.20;;;1.83;;
5900;SDS011;2976;49.764;9.796;2023-02-01T08:35:20;7.90;;;2.80;;
5900;SDS011;2976;49.764;9.796;2023-02-01T08:37:45;7.57;;;1.57;;
5900;SDS011;2976;49.764;9.796;2023-02-01T08:40:11;6.53;;;1.87;;
5900;SDS011;2976;49.764;9.796;2023-02-01T08:42:38;8.83;;;2.80;;
5900;SDS011;2976;49.764;9.796;2023-02-01T08:45:20;4.60;;;1.90;;
5900;SDS011;2976;49.764;9.796;2023-02-01T08:47:48;4.67;;;2.17;;
5900;SDS011;2976;49.764;9.796;2023-02-01T08:50:15;7.20;;;2.27;;
5900;SDS011;2976;49.764;9.796;2023-02-01T08:52:41;6.53;;;2.40;;
5900;SDS011;2976;49.764;9.796;2023-02-01T08:55:07;4.43;;;1.70;;
5900;SDS011;2976;49.764;9.796;2023-02-01T08:57:33;3.07;;;1.37;;
5900;SDS011;2976;49.764;9.796;2023-02-01T08:59:58;9.93;;;1.93;;
5900;SDS011;2976;49.764;9.796;2023-02-01T09:02:25;5.97;;;2.10;;
5900;SDS011;2976;49.764;9.796;2023-02-01T09:04:51;9.87;;;1.97;;
5900;SDS011;2976;49.764;9.796;2023-02-01T09:07:17;11.93;;;2.30;;
5900;SDS011;2976;49.764;9.796;2023-02-01T09:09:43;6.40;;;2.50;;
5900;SDS011;2976;49.764;9.796;2023-02-01T09:12:09;5.70;;;2.30;;
5900;SDS011;2976;49.764;9.796;2023-02-01T09:14:35;9.70;;;2.70;;
5900;SDS011;2976;49.764;9.796;2023-02-01T09:17:00;9.47;;;2.70;;
5900;SDS011;2976;49.764;9.796;2023-02-01T09:19:26;12.87;;;2.50;;
5900;SDS011;2976;49.764;9.796;2023-02-01T09:21:51;12.60;;;2.80;;
5900;SDS011;2976;49.764;9.796;2023-02-01T09:24:17;8.63;;;2.60;;
5900;SDS011;2976;49.764;9.796;2023-02-01T09:26:42;7.83;;;2.60;;
5900;SDS011;2976;49.764;9.796;2023-02-01T09:29:09;7.83;;;2.30;;
5900;SDS011;2976;49.764;9.796;2023-02-01T09:31:38;8.17;;;2.47;;
5900;SDS011;2976;49.764;9.796;2023-02-01T09:34:05;6.37;;;3.07;;
5900;SDS011;2976;49.764;9.796;2023-02-01T09:36:31;7.83;;;2.63;;
5900;SDS011;2976;49.764;9.796;2023-02-01T09:38:57;7.77;;;2.00;;
5900;SDS011;2976;49.764;9.796;2023-02-01T09:47:17;9.20;;;2.10;;
5900;SDS011;2976;49.764;9.796;2023-02-01T09:49:53;7.53;;;1.67;;
5900;SDS011;2976;49.764;9.796;2023-02-01T09:52:21;7.97;;;2.93;;
5900;SDS011;2976;49.764;9.796;2023-02-01T09:54:54;11.53;;;2.30;;
5900;SDS011;2976;49.764;9.796;2023-02-01T09:57:27;9.20;;;2.03;;
5900;SDS011;2976;49.764;9.796;2023-02-01T10:00:03;5.93;;;2.30;;
5900;SDS011;2976;49.764;9.796;2023-02-01T10:02:32;13.07;;;1.83;;
5900;SDS011;2976;49.764;9.796;2023-02-01T10:05:01;10.30;;;2.63;;
5900;SDS011;2976;49.764;9.796;2023-02-01T10:07:32;10.43;;;2.57;;
5900;SDS011;2976;49.764;9.796;2023-02-01T10:13:18;13.70;;;2.20;;
5900;SDS011;2976;49.764;9.796;2023-02-01T10:15:44;10.53;;;2.10;;
5900;SDS011;2976;49.764;9.796;2023-02-01T10:24:11;11.47;;;2.60;;
5900;SDS011;2976;49.764;9.796;2023-02-01T10:26:51;8.20;;;2.10;;
5900;SDS011;2976;49.764;9.796;2023-02-01T10:29:26;4.60;;;1.93;;
5900;SDS011;2976;49.764;9.796;2023-02-01T10:31:59;7.43;;;2.00;;
5900;SDS011;2976;49.764;9.796;2023-02-01T10:34:31;2.30;;;1.30;;
5900;SDS011;2976;49.764;9.796;2023-02-01T10:37:08;5.37;;;1.70;;
5900;SDS011;2976;49.764;9.796;2023-02-01T10:39:43;8.27;;;2.63;;
5900;SDS011;2976;49.764;9.796;2023-02-01T10:42:11;8.47;;;1.90;;
5900;SDS011;2976;49.764;9.796;2023-02-01T10:44:37;7.47;;;2.40;;
5900;SDS011;2976;49.764;9.796;2023-02-01T10:47:09;14.07;;;2.50;;
5900;SDS011;2976;49.764;9.796;2023-02-01T10:49:38;5.60;;;2.00;;
5900;SDS011;2976;49.764;9.796;2023-02-01T10:54:46;9.80;;;2.07;;
5900;SDS011;2976;49.764;9.796;2023-02-01T10:57:30;9.43;;;2.97;;
5900;SDS011;2976;49.764;9.796;2023-02-01T10:59:56;9.53;;;2.80;;
5900;SDS011;2976;49.764;9.796;2023-02-01T11:02:32;10.67;;;2.20;;
5900;SDS011;2976;49.764;9.796;2023-02-01T11:05:00;5.43;;;2.13;;
5900;SDS011;2976;49.764;9.796;2023-02-01T11:07:37;4.20;;;1.40;;
5900;SDS011;2976;49.764;9.796;2023-02-01T11:10:15;13.97;;;2.47;;
5900;SDS011;2976;49.764;9.796;2023-02-01T11:13:03;16.30;;;2.27;;
5900;SDS011;2976;49.764;9.796;2023-02-01T11:15:29;6.90;;;1.80;;
5900;SDS011;2976;49.764;9.796;2023-02-01T11:17:55;10.03;;;1.87;;
5900;SDS011;2976;49.764;9.796;2023-02-01T11:22:56;8.83;;;2.03;;
5900;SDS011;2976;49.764;9.796;2023-02-01T11:25:22;11.43;;;1.67;;
5900;SDS011;2976;49.764;9.796;2023-02-01T11:27:49;14.40;;;2.00;;
5900;SDS011;2976;49.764;9.796;2023-02-01T11:30:16;3.17;;;1.30;;
5900;SDS011;2976;49.764;9.796;2023-02-01T11:32:46;7.03;;;1.83;;
5900;SDS011;2976;49.764;9.796;2023-02-01T11:35:15;5.17;;;1.43;;
5900;SDS011;2976;49.764;9.796;2023-02-01T11:37:44;4.60;;;1.60;;
5900;SDS011;2976;49.764;9.796;2023-02-01T11:42:59;10.90;;;1.70;;
5900;SDS011;2976;49.764;9.796;2023-02-01T11:45:27;9.17;;;2.77;;
5900;SDS011;2976;49.764;9.796;2023-02-01T11:47:59;8.63;;;1.90;;
5900;SDS011;2976;49.764;9.796;2023-02-01T11:56:14;6.07;;;1.43;;
5900;SDS011;2976;49.764;9.796;2023-02-01T12:13:12;3.13;;;1.67;;
5900;SDS011;2976;49.764;9.796;2023-02-01T12:15:51;9.07;;;2.10;;
5900;SDS011;2976;49.764;9.796;2023-02-01T12:19:34;5.50;;;1.63;;
5900;SDS011;2976;49.764;9.796;2023-02-01T12:29:59;4.20;;;1.37;;
5900;SDS011;2976;49.764;9.796;2023-02-01T12:41:30;7.50;;;2.30;;
5900;SDS011;2976;49.764;9.796;2023-02-01T12:44:17;3.60;;;1.53;;
5900;SDS011;2976;49.764;9.796;2023-02-01T12:50:00;4.83;;;2.03;;
5900;SDS011;2976;49.764;9.796;2023-02-01T12:52:39;19.00;;;2.37;;
5900;SDS011;2976;49.764;9.796;2023-02-01T13:00:49;4.77;;;1.70;;
5900;SDS011;2976;49.764;9.796;2023-02-01T13:03:34;7.30;;;1.20;;
5900;SDS011;2976;49.764;9.796;2023-02-01T13:06:06;4.73;;;1.23;;
5900;SDS011;2976;49.764;9.796;2023-02-01T13:08:51;4.47;;;1.57;;
5900;SDS011;2976;49.764;9.796;2023-02-01T13:11:27;7.13;;;2.40;;
5900;SDS011;2976;49.764;9.796;2023-02-01T13:14:07;3.17;;;1.50;;
5900;SDS011;2976;49.764;9.796;2023-02-01T13:16:48;7.53;;;1.90;;
5900;SDS011;2976;49.764;9.796;2023-02-01T13:22:10;10.03;;;1.83;;
5900;SDS011;2976;49.764;9.796;2023-02-01T13:27:20;7.50;;;1.67;;
5900;SDS011;2976;49.764;9.796;2023-02-01T13:40:33;14.10;;;2.60;;
5900;SDS011;2976;49.764;9.796;2023-02-01T13:45:48;6.70;;;1.40;;
5900;SDS011;2976;49.764;9.796;2023-02-01T13:48:51;5.90;;;2.23;;
5900;SDS011;2976;49.764;9.796;2023-02-01T13:51:41;9.70;;;1.70;;
5900;SDS011;2976;49.764;9.796;2023-02-01T13:54:23;13.57;;;2.20;;
5900;SDS011;2976;49.764;9.796;2023-02-01T13:56:51;7.07;;;2.10;;
5900;SDS011;2976;49.764;9.796;2023-02-01T14:02:35;10.63;;;1.77;;
5900;SDS011;2976;49.764;9.796;2023-02-01T14:05:08;4.97;;;1.07;;
5900;SDS011;2976;49.764;9.796;2023-02-01T14:28:50;6.53;;;1.40;;
5900;SDS011;2976;49.764;9.796;2023-02-01T14:34:16;7.30;;;1.80;;
5900;SDS011;2976;49.764;9.796;2023-02-01T14:36:57;10.53;;;2.43;;
5900;SDS011;2976;49.764;9.796;2023-02-01T14:41:52;8.93;;;1.80;;
5900;SDS011;2976;49.764;9.796;2023-02-01T14:44:25;8.63;;;1.30;;
5900;SDS011;2976;49.764;9.796;2023-02-01T14:47:09;7.87;;;1.70;;
5900;SDS011;2976;49.764;9.796;2023-02-01T14:52:35;11.50;;;1.80;;
5900;SDS011;2976;49.764;9.796;2023-02-01T14:55:11;7.60;;;1.73;;
5900;SDS011;2976;49.764;9.796;2023-02-01T14:57:39;15.53;;;2.30;;
5900;SDS011;2976;49.764;9.796;2023-02-01T15:00:11;9.63;;;2.80;;
5900;SDS011;2976;49.764;9.796;2023-02-01T15:02:45;10.23;;;1.87;;
5900;SDS011;2976;49.764;9.796;2023-02-01T15:05:20;6.07;;;1.67;;
5900;SDS011;2976;49.764;9.796;2023-02-01T15:07:56;8.73;;;1.50;;
5900;SDS011;2976;49.764;9.796;2023-02-01T15:10:25;8.13;;;1.60;;
5900;SDS011;2976;49.764;9.796;2023-02-01T15:12:51;5.93;;;2.37;;
5900;SDS011;2976;49.764;9.796;2023-02-01T15:15:23;6.97;;;1.67;;
5900;SDS011;2976;49.764;9.796;2023-02-01T15:17:53;9.40;;;1.27;;
5900;SDS011;2976;49.764;9.796;2023-02-01T15:20:25;13.97;;;1.67;;
5900;SDS011;2976;49.764;9.796;2023-02-01T15:23:25;4.33;;;1.60;;
5900;SDS011;2976;49.764;9.796;2023-02-01T15:25:45;10.10;;;1.70;;
5900;SDS011;2976;49.764;9.796;2023-02-01T15:28:12;9.77;;;2.00;;
5900;SDS011;2976;49.764;9.796;2023-02-01T15:30:39;10.60;;;2.23;;
5900;SDS011;2976;49.764;9.796;2023-02-01T15:38:18;7.30;;;1.53;;
5900;SDS011;2976;49.764;9.796;2023-02-01T15:41:06;5.03;;;1.80;;
5900;SDS011;2976;49.764;9.796;2023-02-01T15:44:02;8.90;;;2.00;;
5900;SDS011;2976;49.764;9.796;2023-02-01T15:46:35;10.57;;;1.87;;
5900;SDS011;2976;49.764;9.796;2023-02-01T15:49:03;9.20;;;1.80;;
5900;SDS011;2976;49.764;9.796;2023-02-01T15:51:30;10.27;;;2.00;;
5900;SDS011;2976;49.764;9.796;2023-02-01T15:54:01;15.13;;;2.90;;
5900;SDS011;2976;49.764;9.796;2023-02-01T15:56:33;11.47;;;2.00;;
5900;SDS011;2976;49.764;9.796;2023-02-01T15:59:01;4.70;;;1.50;;
5900;SDS011;2976;49.764;9.796;2023-02-01T16:01:29;6.83;;;1.80;;
5900;SDS011;2976;49.764;9.796;2023-02-01T16:06:44;7.53;;;2.07;;
5900;SDS011;2976;49.764;9.796;2023-02-01T16:09:13;14.03;;;2.63;;
5900;SDS011;2976;49.764;9.796;2023-02-01T16:14:14;11.03;;;2.00;;
5900;SDS011;2976;49.764;9.796;2023-02-01T16:16:40;10.47;;;3.30;;
5900;SDS011;2976;49.764;9.796;2023-02-01T16:19:06;8.00;;;1.80;;
5900;SDS011;2976;49.764;9.796;2023-02-01T16:21:32;6.93;;;2.10;;
5900;SDS011;2976;49.764;9.796;2023-02-01T16:23:57;6.60;;;1.90;;
5900;SDS011;2976;49.764;9.796;2023-02-01T16:26:28;11.53;;;2.10;;
5900;SDS011;2976;49.764;9.796;2023-02-01T16:28:54;4.10;;;1.50;;
5900;SDS011;2976;49.764;9.796;2023-02-01T16:31:21;11.67;;;1.80;;
5900;SDS011;2976;49.764;9.796;2023-02-01T16:33:52;9.83;;;1.67;;
5900;SDS011;2976;49.764;9.796;2023-02-01T16:36:18;11.10;;;1.87;;
5900;SDS011;2976;49.764;9.796;2023-02-01T16:38:44;8.10;;;1.63;;
5900;SDS011;2976;49.764;9.796;2023-02-01T16:41:15;10.67;;;1.70;;
5900;SDS011;2976;49.764;9.796;2023-02-01T16:43:42;4.37;;;1.90;;
5900;SDS011;2976;49.764;9.796;2023-02-01T16:46:14;9.30;;;2.00;;
5900;SDS011;2976;49.764;9.796;2023-02-01T16:48:45;12.93;;;2.30;;
5900;SDS011;2976;49.764;9.796;2023-02-01T16:51:15;4.20;;;1.43;;
5900;SDS011;2976;49.764;9.796;2023-02-01T16:53:41;9.80;;;1.70;;
5900;SDS011;2976;49.764;9.796;2023-02-01T16:56:50;10.77;;;2.50;;
5900;SDS011;2976;49.764;9.796;2023-02-01T16:58:58;8.87;;;2.50;;
5900;SDS011;2976;49.764;9.796;2023-02-01T17:01:24;10.30;;;3.07;;
5900;SDS011;2976;49.764;9.796;2023-02-01T17:03:50;8.13;;;1.80;;
5900;SDS011;2976;49.764;9.796;2023-02-01T17:06:16;7.80;;;2.00;;
5900;SDS011;2976;49.764;9.796;2023-02-01T17:08:45;7.67;;;1.70;;
5900;SDS011;2976;49.764;9.796;2023-02-01T17:11:15;6.07;;;1.40;;
5900;SDS011;2976;49.764;9.796;2023-02-01T17:13:41;10.10;;;1.77;;
5900;SDS011;2976;49.764;9.796;2023-02-01T17:18:54;8.53;;;2.00;;
5900;SDS011;2976;49.764;9.796;2023-02-01T17:21:23;13.07;;;2.57;;
5900;SDS011;2976;49.764;9.796;2023-02-01T17:23:51;8.37;;;1.70;;
5900;SDS011;2976;49.764;9.796;2023-02-01T17:26:17;9.20;;;1.93;;
5900;SDS011;2976;49.764;9.796;2023-02-01T17:28:43;7.53;;;1.53;;
5900;SDS011;2976;49.764;9.796;2023-02-01T17:31:11;8.93;;;2.13;;
5900;SDS011;2976;49.764;9.796;2023-02-01T17:33:39;10.97;;;2.10;;
5900;SDS011;2976;49.764;9.796;2023-02-01T17:36:06;2.57;;;1.47;;
5900;SDS011;2976;49.764;9.796;2023-02-01T17:38:34;13.87;;;2.07;;
5900;SDS011;2976;49.764;9.796;2023-02-01T17:41:00;4.93;;;1.50;;
5900;SDS011;2976;49.764;9.796;2023-02-01T17:43:25;10.90;;;1.97;;
5900;SDS011;2976;49.764;9.796;2023-02-01T17:45:52;9.33;;;1.80;;
5900;SDS011;2976;49.764;9.796;2023-02-01T17:48:35;20.63;;;2.87;;
5900;SDS011;2976;49.764;9.796;2023-02-01T17:51:00;17.87;;;3.53;;
5900;SDS011;2976;49.764;9.796;2023-02-01T17:53:26;12.80;;;1.93;;
5900;SDS011;2976;49.764;9.796;2023-02-01T17:55:53;7.23;;;1.93;;
5900;SDS011;2976;49.764;9.796;2023-02-01T17:58:19;11.27;;;2.10;;